Time;durP1;ratioP1;P1;durP2;ratioP2;P2;SDS_P1;SDS_P2;PMS_P1;PMS_P2;Temp;Humidity;BMP_temperature;BMP_pressure;BME280_temperature;BME280_humidity;BME280_pressure;Samples;Min_cycle;Max_cycle;Signal;HPM_P1;HPM_P2
2022/07/20 00:01:25;;;;;;;2.47;2.27;;;30.20;34.30;;;;;;5107426;22;21012;-47
2022/07/20 00:03:53;;;;;;;3.00;2.70;;;30.20;34.50;;;;;;5085034;28;20974;-48
2022/07/20 00:06:21;;;;;;;2.87;2.67;;;30.20;34.50;;;;;;5069123;28;20466;-47
2022/07/20 00:11:36;;;;;;;3.50;3.30;;;30.20;34.10;;;;;;5079319;28;20543;-50
2022/07/20 00:14:05;;;;;;;2.77;2.57;;;30.20;34.50;;;;;;5057904;28;20869;-49
2022/07/20 00:16:35;;;;;;;2.87;2.67;;;30.20;34.70;;;;;;5073636;28;20470;-48
2022/07/20 00:19:04;;;;;;;2.90;2.60;;;30.20;34.30;;;;;;5092462;28;20506;-50
2022/07/20 00:21:33;;;;;;;2.77;2.63;;;30.20;34.30;;;;;;5076750;28;20454;-49
2022/07/20 00:24:01;;;;;;;4.13;2.57;;;30.20;34.40;;;;;;5087637;28;20434;-49
2022/07/20 00:26:29;;;;;;;3.57;2.73;;;30.20;34.30;;;;;;5079295;28;20544;-49
2022/07/20 00:28:57;;;;;;;2.90;2.70;;;30.20;34.70;;;;;;5062828;28;20421;-47
2022/07/20 00:31:26;;;;;;;3.07;2.87;;;30.20;35.50;;;;;;5068480;28;20984;-48
2022/07/20 00:33:55;;;;;;;3.73;2.83;;;30.20;35.50;;;;;;5065960;28;20437;-48
2022/07/20 00:36:23;;;;;;;2.87;2.67;;;30.20;38.00;;;;;;5076580;28;20460;-48
2022/07/20 00:38:51;;;;;;;3.30;2.87;;;30.20;37.20;;;;;;5078749;28;20466;-47
2022/07/20 00:41:20;;;;;;;4.07;2.87;;;30.20;38.50;;;;;;5071154;28;20515;-47
2022/07/20 00:43:56;;;;;;;3.07;2.77;;;30.20;34.00;;;;;;5078451;28;20770;-47
2022/07/20 00:46:25;;;;;;;2.70;2.50;;;30.20;34.00;;;;;;5074863;28;20902;-48
2022/07/20 00:48:54;;;;;;;3.53;2.67;;;30.20;34.50;;;;;;5082249;28;20430;-47
2022/07/20 00:51:23;;;;;;;2.70;2.50;;;30.20;35.10;;;;;;5076542;28;20450;-49
2022/07/20 00:53:51;;;;;;;4.93;3.17;;;30.20;36.20;;;;;;5073274;28;20494;-47
2022/07/20 00:56:20;;;;;;;5.13;3.10;;;30.20;35.90;;;;;;5075725;28;20493;-48
2022/07/20 00:58:49;;;;;;;3.30;3.00;;;30.10;35.70;;;;;;5066724;28;20458;-50
2022/07/20 01:01:18;;;;;;;3.40;3.07;;;30.10;36.40;;;;;;5071158;28;20553;-48
2022/07/20 01:03:47;;;;;;;3.70;2.90;;;30.10;36.90;;;;;;5070189;28;20795;-50
2022/07/20 01:06:17;;;;;;;3.47;3.07;;;30.10;37.10;;;;;;5075436;28;20458;-48
2022/07/20 01:08:48;;;;;;;3.10;2.90;;;30.10;36.90;;;;;;5070973;28;20522;-49
2022/07/20 01:11:18;;;;;;;2.97;2.77;;;30.10;36.90;;;;;;5074072;28;20469;-50
2022/07/20 01:13:46;;;;;;;3.00;2.70;;;30.10;36.20;;;;;;5074337;28;20910;-48
2022/07/20 01:16:14;;;;;;;2.97;2.60;;;30.10;36.10;;;;;;5078522;28;20458;-47
2022/07/20 01:18:43;;;;;;;2.97;2.77;;;30.10;36.20;;;;;;5079221;28;20499;-47
2022/07/20 01:21:12;;;;;;;3.27;3.07;;;30.10;36.90;;;;;;5066194;28;20545;-46
2022/07/20 01:23:40;;;;;;;3.37;2.70;;;30.10;37.10;;;;;;5077881;28;20782;-48
2022/07/20 01:26:08;;;;;;;2.67;2.47;;;30.10;37.70;;;;;;5078329;28;20470;-48
2022/07/20 01:28:40;;;;;;;3.20;2.93;;;30.10;38.10;;;;;;5070681;28;20511;-48
2022/07/20 01:31:08;;;;;;;3.13;2.83;;;30.10;39.00;;;;;;5072549;28;20925;-47
2022/07/20 01:33:36;;;;;;;2.50;2.30;;;30.10;39.20;;;;;;5087923;28;20422;-48
2022/07/20 01:36:06;;;;;;;4.87;2.93;;;30.10;39.30;;;;;;5074473;28;20482;-48
2022/07/20 01:38:35;;;;;;;3.33;3.03;;;30.10;34.20;;;;;;5078111;28;20550;-48
2022/07/20 01:41:03;;;;;;;2.80;2.30;;;30.00;34.10;;;;;;5075328;28;20492;-50
2022/07/20 01:43:31;;;;;;;3.03;2.80;;;30.10;34.10;;;;;;5085988;28;20828;-50
2022/07/20 01:46:00;;;;;;;2.60;2.40;;;30.00;34.10;;;;;;5058175;28;20463;-49
2022/07/20 01:48:28;;;;;;;2.90;2.70;;;30.00;34.10;;;;;;5069420;28;20438;-49
2022/07/20 01:50:56;;;;;;;3.57;3.27;;;30.00;34.20;;;;;;5065543;28;21075;-48
2022/07/20 01:53:24;;;;;;;3.20;2.90;;;30.00;34.20;;;;;;5069518;28;20499;-48
2022/07/20 01:55:54;;;;;;;3.13;2.83;;;30.00;34.10;;;;;;5072203;28;20895;-47
2022/07/20 01:58:22;;;;;;;3.00;2.70;;;30.10;34.30;;;;;;5080596;28;20468;-48
2022/07/20 02:00:51;;;;;;;4.50;3.50;;;30.10;34.30;;;;;;5076572;28;20450;-48
2022/07/20 02:03:20;;;;;;;3.50;3.20;;;30.00;34.50;;;;;;5067213;28;20418;-49
2022/07/20 02:05:48;;;;;;;3.00;2.80;;;30.00;34.30;;;;;;5070579;28;20549;-49
2022/07/20 02:08:16;;;;;;;2.87;2.67;;;30.00;34.80;;;;;;5077100;28;20445;-49
2022/07/20 02:10:44;;;;;;;3.70;3.40;;;30.00;34.60;;;;;;5052390;28;20457;-48
2022/07/20 02:13:14;;;;;;;4.80;3.50;;;30.00;34.30;;;;;;5078834;28;20434;-47
2022/07/20 02:18:28;;;;;;;3.00;2.80;;;30.00;34.50;;;;;;5081375;28;20461;-50
2022/07/20 02:20:56;;;;;;;3.53;3.23;;;30.00;34.50;;;;;;5073088;28;20507;-48
2022/07/20 02:23:24;;;;;;;3.13;2.93;;;30.00;34.50;;;;;;5077635;28;20884;-50
2022/07/20 02:25:52;;;;;;;3.10;2.90;;;29.90;34.50;;;;;;5072024;28;20468;-49
2022/07/20 02:28:22;;;;;;;3.90;3.00;;;30.00;35.10;;;;;;5081684;28;20457;-49
2022/07/20 02:30:50;;;;;;;3.13;2.83;;;30.00;34.80;;;;;;5060619;28;20553;-47
2022/07/20 02:33:18;;;;;;;2.77;2.40;;;30.00;34.90;;;;;;5077711;28;20422;-47
2022/07/20 02:35:46;;;;;;;3.40;3.20;;;29.90;34.70;;;;;;5067334;28;20489;-49
2022/07/20 02:38:14;;;;;;;3.27;2.97;;;29.90;34.50;;;;;;5063862;28;20469;-48
2022/07/20 02:40:43;;;;;;;3.43;3.13;;;29.90;34.50;;;;;;5077956;28;20829;-48
2022/07/20 02:43:11;;;;;;;3.23;3.00;;;30.00;34.50;;;;;;5070836;28;20435;-47
2022/07/20 02:45:41;;;;;;;2.90;2.70;;;29.90;34.80;;;;;;5077016;28;20525;-47
2022/07/20 02:48:09;;;;;;;4.13;2.90;;;29.90;35.30;;;;;;5075059;28;20501;-47
2022/07/20 02:50:41;;;;;;;2.90;2.70;;;29.90;35.60;;;;;;5065270;28;20541;-49
2022/07/20 02:53:10;;;;;;;3.10;2.80;;;29.90;35.70;;;;;;5069362;28;20533;-48
2022/07/20 02:55:39;;;;;;;3.53;3.23;;;29.90;35.30;;;;;;5059537;28;20823;-47
2022/07/20 02:58:08;;;;;;;3.40;3.10;;;29.90;35.20;;;;;;5077873;28;20466;-47
2022/07/20 03:00:36;;;;;;;3.13;2.90;;;29.90;35.50;;;;;;5065034;28;20461;-48
2022/07/20 03:03:07;;;;;;;4.17;2.43;;;29.90;35.60;;;;;;5067747;28;20532;-51
2022/07/20 03:05:35;;;;;;;2.93;2.70;;;29.90;35.80;;;;;;5064595;28;20984;-49
2022/07/20 03:08:05;;;;;;;2.27;2.17;;;29.90;36.10;;;;;;5077744;28;21012;-47
2022/07/20 03:10:34;;;;;;;2.60;2.40;;;29.90;36.40;;;;;;5077344;28;20468;-49
2022/07/20 03:13:02;;;;;;;2.80;2.60;;;29.90;36.60;;;;;;5073347;28;20441;-47
2022/07/20 03:15:30;;;;;;;2.47;2.27;;;29.90;36.70;;;;;;5070859;28;20455;-48
2022/07/20 03:17:58;;;;;;;2.77;2.50;;;29.90;37.00;;;;;;5077778;28;20458;-46
2022/07/20 03:20:29;;;;;;;3.27;2.37;;;29.90;37.30;;;;;;5071425;28;20462;-47
2022/07/20 03:22:58;;;;;;;2.60;2.40;;;29.90;37.20;;;;;;5063710;28;20512;-47
2022/07/20 03:25:26;;;;;;;3.07;2.77;;;29.90;37.50;;;;;;5078851;28;20433;-49
2022/07/20 03:27:55;;;;;;;2.87;2.67;;;29.90;37.20;;;;;;5069974;28;20462;-48
2022/07/20 03:30:24;;;;;;;3.23;2.93;;;29.90;38.50;;;;;;5077371;28;20450;-48
2022/07/20 03:32:54;;;;;;;3.23;3.03;;;29.90;38.30;;;;;;5077399;28;20438;-46
2022/07/20 03:35:22;;;;;;;2.83;2.63;;;29.90;37.30;;;;;;5071160;28;20477;-49
2022/07/20 03:37:52;;;;;;;2.40;2.20;;;29.90;37.40;;;;;;5080492;28;20460;-49
2022/07/20 03:40:20;;;;;;;4.30;3.20;;;29.90;37.50;;;;;;5080703;28;20469;-49
2022/07/20 03:42:49;;;;;;;2.27;2.17;;;29.90;37.30;;;;;;5077525;28;21048;-48
2022/07/20 03:45:17;;;;;;;2.93;2.73;;;29.90;37.30;;;;;;5066450;28;20434;-48
2022/07/20 03:47:54;;;;;;;4.23;2.83;;;29.90;37.60;;;;;;5079282;28;20454;-47
2022/07/20 03:50:23;;;;;;;3.67;2.57;;;29.90;38.20;;;;;;5079164;28;20462;-48
2022/07/20 03:52:53;;;;;;;2.90;2.70;;;29.90;37.00;;;;;;5071810;28;20809;-50
2022/07/20 03:55:22;;;;;;;3.80;3.50;;;29.90;37.20;;;;;;5087956;28;20436;-50
2022/07/20 03:57:51;;;;;;;4.17;3.20;;;29.90;37.10;;;;;;5066106;28;20449;-48
2022/07/20 04:00:20;;;;;;;3.93;3.63;;;29.90;37.30;;;;;;5072496;28;20488;-47
2022/07/20 04:02:48;;;;;;;3.63;3.43;;;29.90;37.30;;;;;;5081409;28;20426;-49
2022/07/20 04:05:17;;;;;;;4.63;4.33;;;29.80;37.20;;;;;;5087813;28;20960;-48
2022/07/20 04:07:45;;;;;;;3.70;3.50;;;29.90;37.00;;;;;;5086045;28;20453;-49
2022/07/20 04:10:15;;;;;;;4.30;3.90;;;29.90;37.30;;;;;;5078045;28;20472;-46
2022/07/20 04:12:50;;;;;;;4.63;4.07;;;29.90;37.30;;;;;;5048301;28;20477;-49
2022/07/20 04:15:19;;;;;;;9.13;5.67;;;29.90;37.20;;;;;;5079240;28;20449;-48
2022/07/20 04:17:48;;;;;;;5.10;4.80;;;29.90;37.20;;;;;;5074251;28;20460;-48
2022/07/20 04:20:17;;;;;;;5.87;5.37;;;29.80;37.20;;;;;;5067718;28;20773;-49
2022/07/20 04:22:46;;;;;;;5.03;4.60;;;29.80;37.50;;;;;;5062270;28;20422;-48
2022/07/20 04:25:15;;;;;;;4.87;4.43;;;29.80;37.50;;;;;;5072535;28;20596;-48
2022/07/20 04:27:44;;;;;;;4.73;4.33;;;29.80;37.50;;;;;;5069166;28;20455;-49
2022/07/20 04:30:13;;;;;;;7.63;6.20;;;29.80;37.60;;;;;;5054192;28;20478;-47
2022/07/20 04:32:43;;;;;;;5.93;5.40;;;29.80;37.30;;;;;;5056000;28;20497;-49
2022/07/20 04:35:12;;;;;;;5.63;5.17;;;29.80;37.50;;;;;;5056024;28;20450;-45
2022/07/20 04:37:40;;;;;;;6.47;5.00;;;29.80;37.80;;;;;;5079779;28;20450;-47
2022/07/20 04:40:10;;;;;;;5.37;4.97;;;29.80;37.80;;;;;;5080546;28;20465;-50
2022/07/20 04:42:41;;;;;;;5.83;5.33;;;29.80;37.80;;;;;;5071646;28;20992;-50
2022/07/20 04:45:11;;;;;;;6.73;6.00;;;29.80;37.70;;;;;;5064871;28;20545;-48
2022/07/20 04:47:39;;;;;;;5.60;5.10;;;29.80;37.80;;;;;;5075500;28;20469;-48
2022/07/20 04:50:09;;;;;;;5.53;5.03;;;29.80;37.90;;;;;;5067590;28;20507;-48
2022/07/20 04:52:38;;;;;;;5.37;4.97;;;29.70;38.00;;;;;;5072325;28;20532;-48
2022/07/20 04:55:08;;;;;;;6.80;6.20;;;29.70;38.20;;;;;;5070217;28;20934;-48
2022/07/20 04:57:36;;;;;;;6.33;5.73;;;29.70;38.20;;;;;;5050605;28;20458;-48
2022/07/20 05:00:09;;;;;;;6.20;5.80;;;29.70;38.30;;;;;;5060696;28;20508;-49
2022/07/20 05:02:37;;;;;;;6.73;6.03;;;29.70;38.40;;;;;;5055233;28;20479;-48
2022/07/20 05:05:07;;;;;;;8.37;7.67;;;29.70;38.60;;;;;;5070440;28;20801;-48
2022/07/20 05:07:36;;;;;;;9.20;8.20;;;29.70;38.40;;;;;;5074556;28;20466;-49
2022/07/20 05:10:06;;;;;;;7.43;6.43;;;29.70;38.40;;;;;;5084900;28;20519;-47
2022/07/20 05:12:35;;;;;;;6.97;6.47;;;29.70;38.60;;;;;;5050899;28;20466;-51
2022/07/20 05:15:04;;;;;;;7.87;7.17;;;29.70;38.60;;;;;;5058687;28;20484;-48
2022/07/20 05:17:34;;;;;;;15.57;13.97;;;29.70;38.70;;;;;;5072032;28;21071;-46
2022/07/20 05:20:02;;;;;;;17.07;15.13;;;29.70;38.30;;;;;;5072189;28;20557;-50
2022/07/20 05:22:32;;;;;;;19.00;17.33;;;29.70;38.20;;;;;;5067611;28;20523;-49
2022/07/20 05:25:00;;;;;;;21.00;19.00;;;29.60;38.00;;;;;;5070104;28;20434;-47
2022/07/20 05:27:28;;;;;;;19.30;17.67;;;29.60;38.10;;;;;;5069599;28;20509;-46
2022/07/20 05:29:56;;;;;;;19.40;17.40;;;29.50;38.30;;;;;;5069690;28;20461;-46
2022/07/20 05:32:24;;;;;;;20.00;18.33;;;29.50;38.30;;;;;;5073478;28;20481;-46
2022/07/20 05:34:54;;;;;;;22.37;20.30;;;29.60;38.30;;;;;;5071875;28;20446;-47
2022/07/20 05:37:22;;;;;;;21.93;19.97;;;29.50;38.30;;;;;;5070232;28;20568;-47
2022/07/20 05:39:50;;;;;;;20.93;18.80;;;29.60;38.60;;;;;;5073807;28;20556;-47
2022/07/20 05:42:19;;;;;;;24.60;22.47;;;29.50;38.30;;;;;;5077208;28;20465;-45
2022/07/20 05:44:46;;;;;;;22.50;20.30;;;29.40;38.50;;;;;;5077292;28;20472;-46
2022/07/20 05:47:17;;;;;;;24.10;21.73;;;29.40;38.70;;;;;;5070223;28;20458;-46
2022/07/20 05:49:48;;;;;;;22.33;20.13;;;29.30;39.00;;;;;;5066678;28;20934;-47
2022/07/20 05:52:18;;;;;;;23.03;20.67;;;29.30;39.10;;;;;;5065456;28;20448;-47
2022/07/20 05:54:46;;;;;;;22.67;20.37;;;29.20;39.40;;;;;;5069766;28;20491;-47
2022/07/20 05:57:15;;;;;;;22.50;20.60;;;29.20;39.50;;;;;;5065845;28;20506;-46
2022/07/20 05:59:44;;;;;;;23.93;21.60;;;29.10;39.60;;;;;;5071114;28;20948;-48
2022/07/20 06:02:12;;;;;;;22.03;20.00;;;29.10;39.70;;;;;;5080866;28;20474;-48
2022/07/20 06:04:40;;;;;;;23.10;21.10;;;29.10;39.90;;;;;;5065716;28;20892;-48
2022/07/20 06:07:11;;;;;;;22.13;19.97;;;29.00;40.00;;;;;;5063128;28;20562;-48
2022/07/20 06:09:40;;;;;;;22.27;19.83;;;29.00;40.20;;;;;;5069350;28;20434;-48
2022/07/20 06:12:10;;;;;;;22.60;20.10;;;29.00;40.50;;;;;;5068300;28;20544;-47
2022/07/20 06:14:39;;;;;;;22.17;20.07;;;29.00;40.50;;;;;;5066193;28;20466;-49
2022/07/20 06:17:07;;;;;;;19.33;17.67;;;29.00;40.80;;;;;;5076256;28;20466;-48
2022/07/20 06:19:35;;;;;;;20.40;18.53;;;29.10;40.50;;;;;;5070288;28;20449;-47
2022/07/20 06:22:04;;;;;;;19.27;17.50;;;29.10;40.30;;;;;;5076657;28;20464;-48
2022/07/20 06:24:32;;;;;;;19.50;17.40;;;29.10;40.20;;;;;;5069623;28;20445;-48
2022/07/20 06:27:07;;;;;;;20.27;18.50;;;29.20;40.20;;;;;;5089777;28;20900;-47
2022/07/20 06:29:37;;;;;;;20.30;18.43;;;29.20;40.20;;;;;;5087087;28;20421;-48
2022/07/20 06:32:07;;;;;;;20.20;18.40;;;29.20;40.20;;;;;;5072516;28;20536;-50
2022/07/20 06:34:43;;;;;;;20.03;18.33;;;29.20;40.10;;;;;;5072227;28;20815;-47
2022/07/20 06:37:11;;;;;;;20.27;18.47;;;29.20;40.00;;;;;;5075279;28;20460;-47
2022/07/20 06:39:40;;;;;;;21.30;19.40;;;29.20;40.10;;;;;;5073188;28;20949;-48
2022/07/20 06:42:16;;;;;;;20.83;18.90;;;29.20;40.00;;;;;;5081284;28;20474;-50
2022/07/20 06:44:48;;;;;;;19.73;18.03;;;29.30;40.10;;;;;;5088340;28;20896;-48
2022/07/20 06:47:17;;;;;;;19.23;17.60;;;29.30;40.00;;;;;;5089438;28;20465;-50
2022/07/20 06:49:46;;;;;;;20.10;18.10;;;29.30;40.00;;;;;;5073424;28;20496;-47
2022/07/20 06:52:14;;;;;;;18.00;16.50;;;29.30;40.00;;;;;;5077589;28;20481;-47
2022/07/20 06:54:43;;;;;;;18.43;16.77;;;29.30;40.00;;;;;;5073039;28;20438;-48
2022/07/20 06:57:11;;;;;;;20.03;18.30;;;29.30;40.00;;;;;;5073566;28;21014;-48
2022/07/20 06:59:41;;;;;;;19.70;18.07;;;29.30;40.10;;;;;;5067210;28;20826;-47
2022/07/20 07:02:11;;;;;;;19.27;17.33;;;29.30;40.00;;;;;;5083146;28;20851;-48
2022/07/20 07:04:42;;;;;;;19.03;17.37;;;29.30;40.10;;;;;;5082757;28;20833;-48
2022/07/20 07:07:10;;;;;;;19.20;17.67;;;29.30;40.10;;;;;;5074837;28;20458;-49
2022/07/20 07:09:39;;;;;;;17.77;16.37;;;29.30;40.20;;;;;;5057480;28;20450;-49
2022/07/20 07:14:36;;;;;;;19.93;17.93;;;29.30;40.10;;;;;;5043107;28;20467;-47
2022/07/20 07:17:06;;;;;;;18.77;17.03;;;29.40;40.20;;;;;;5039678;28;20833;-49
2022/07/20 07:19:35;;;;;;;19.00;17.40;;;29.30;40.20;;;;;;5030788;28;20443;-48
2022/07/20 07:22:05;;;;;;;17.43;16.03;;;29.30;40.10;;;;;;5031584;28;20494;-50
2022/07/20 07:24:33;;;;;;;18.00;16.40;;;29.30;40.10;;;;;;5032632;28;20428;-50
2022/07/20 07:27:03;;;;;;;20.53;18.40;;;29.30;40.50;;;;;;5035988;28;20477;-49
2022/07/20 07:29:31;;;;;;;18.10;16.60;;;29.30;41.30;;;;;;5036128;28;20446;-51
2022/07/20 07:32:08;;;;;;;17.83;16.30;;;29.30;41.20;;;;;;5032667;28;21052;-48
2022/07/20 07:34:36;;;;;;;19.27;17.60;;;29.30;41.30;;;;;;5034967;28;20542;-49
2022/07/20 07:37:05;;;;;;;17.00;15.53;;;29.30;41.50;;;;;;5016725;28;20526;-48
2022/07/20 07:39:34;;;;;;;18.00;16.20;;;29.30;41.90;;;;;;5032919;28;20960;-50
2022/07/20 07:42:02;;;;;;;18.43;16.83;;;29.30;42.40;;;;;;5032718;28;20472;-49
2022/07/20 07:44:37;;;;;;;18.70;16.90;;;29.30;42.40;;;;;;5041158;28;20443;-50
2022/07/20 07:47:06;;;;;;;17.73;16.17;;;29.30;42.30;;;;;;5038606;28;20467;-51
2022/07/20 07:49:36;;;;;;;18.47;16.97;;;29.30;42.40;;;;;;5034239;28;20439;-49
2022/07/20 07:52:04;;;;;;;17.20;15.60;;;29.20;42.30;;;;;;5032305;28;20460;-49
2022/07/20 07:54:32;;;;;;;17.37;15.97;;;29.30;42.40;;;;;;5031820;28;20459;-48
2022/07/20 07:57:00;;;;;;;16.47;15.17;;;29.30;42.40;;;;;;5031724;28;20533;-49
2022/07/20 07:59:29;;;;;;;17.43;15.93;;;29.20;42.30;;;;;;5046265;28;21000;-49
2022/07/20 08:02:01;;;;;;;18.20;16.50;;;29.20;42.50;;;;;;5032534;28;20468;-48
2022/07/20 08:04:31;;;;;;;18.63;16.63;;;29.20;43.00;;;;;;5032890;28;20447;-50
2022/07/20 08:07:01;;;;;;;17.60;15.80;;;29.30;43.30;;;;;;5031297;28;21036;-48
2022/07/20 08:09:29;;;;;;;17.77;16.27;;;29.30;43.60;;;;;;5030658;28;20482;-51
2022/07/20 08:11:58;;;;;;;18.80;17.03;;;29.20;43.20;;;;;;5039344;28;20468;-49
2022/07/20 08:14:26;;;;;;;17.43;15.93;;;29.20;43.90;;;;;;5036923;28;20439;-50
2022/07/20 08:16:54;;;;;;;17.70;16.10;;;29.20;44.00;;;;;;5030568;28;20486;-51
2022/07/20 08:19:22;;;;;;;16.63;15.23;;;29.20;44.20;;;;;;5032695;28;20515;-50
2022/07/20 08:21:50;;;;;;;17.70;16.20;;;29.20;43.90;;;;;;5031770;28;20464;-50
2022/07/20 08:24:20;;;;;;;16.47;15.07;;;29.20;43.60;;;;;;5031072;28;20446;-49
2022/07/20 08:26:48;;;;;;;16.63;15.17;;;29.20;43.30;;;;;;5030609;28;20840;-50
2022/07/20 08:29:17;;;;;;;16.13;14.77;;;29.20;43.20;;;;;;5025525;28;20522;-49
2022/07/20 08:31:45;;;;;;;15.27;13.97;;;29.20;43.20;;;;;;5032620;28;20452;-50
2022/07/20 08:34:13;;;;;;;17.73;16.43;;;29.20;43.10;;;;;;5018458;28;20470;-50
2022/07/20 08:36:49;;;;;;;16.70;15.30;;;29.20;42.70;;;;;;5038809;28;20459;-49
2022/07/20 08:39:18;;;;;;;17.57;16.10;;;29.20;42.30;;;;;;5033348;28;20855;-50
2022/07/20 08:41:48;;;;;;;15.80;14.60;;;29.10;42.40;;;;;;5038524;28;20468;-49
2022/07/20 08:44:17;;;;;;;16.47;15.17;;;29.20;42.30;;;;;;5039092;28;20450;-49
2022/07/20 08:46:46;;;;;;;15.63;14.13;;;29.10;42.40;;;;;;5023191;28;20479;-50
2022/07/20 08:49:15;;;;;;;14.83;13.63;;;29.20;42.30;;;;;;5030873;28;20535;-50
2022/07/20 08:51:44;;;;;;;16.03;14.70;;;29.20;42.70;;;;;;5032487;28;20464;-51
2022/07/20 08:54:12;;;;;;;14.63;13.43;;;29.10;42.30;;;;;;5030585;28;20494;-49
2022/07/20 08:56:41;;;;;;;14.70;13.50;;;29.10;42.30;;;;;;5030620;28;20464;-49
2022/07/20 08:59:11;;;;;;;16.30;15.00;;;29.10;42.20;;;;;;5018774;28;20539;-48
2022/07/20 09:01:58;;;;;;;16.30;14.83;;;29.10;42.90;;;;;;5041179;28;20491;-49
2022/07/20 09:04:27;;;;;;;16.83;15.30;;;29.10;43.60;;;;;;5031428;28;20990;-50
2022/07/20 09:06:56;;;;;;;16.57;14.97;;;29.10;44.00;;;;;;5034180;28;20475;-50
2022/07/20 09:09:25;;;;;;;14.33;13.10;;;29.10;43.80;;;;;;5030512;28;21009;-49
2022/07/20 09:11:56;;;;;;;15.33;13.90;;;29.10;43.70;;;;;;5042254;28;20467;-49
2022/07/20 09:14:43;;;;;;;14.83;13.53;;;29.10;43.70;;;;;;5027260;28;20454;-49
2022/07/20 09:17:21;;;;;;;15.80;14.50;;;29.10;43.70;;;;;;5030760;28;20521;-51
2022/07/20 09:20:01;;;;;;;14.53;13.40;;;29.10;43.70;;;;;;5032332;28;20471;-51
2022/07/20 09:22:33;;;;;;;14.90;13.67;;;29.10;43.20;;;;;;5038510;28;20472;-48
2022/07/20 09:25:10;;;;;;;15.10;14.00;;;29.10;43.30;;;;;;5031116;28;20898;-49
2022/07/20 09:27:38;;;;;;;14.27;13.00;;;29.10;43.20;;;;;;5030904;28;20501;-48
2022/07/20 09:30:11;;;;;;;14.80;13.50;;;29.10;43.00;;;;;;5031414;28;20442;-48
2022/07/20 09:32:54;;;;;;;14.20;13.17;;;29.10;43.10;;;;;;5030483;28;20453;-49
2022/07/20 09:35:24;;;;;;;13.47;12.37;;;29.10;42.90;;;;;;5031172;28;20815;-49
2022/07/20 09:38:00;;;;;;;14.10;12.90;;;29.10;43.00;;;;;;5038532;28;20489;-49
2022/07/20 09:40:29;;;;;;;14.60;13.50;;;29.10;43.00;;;;;;5041551;28;20451;-49
2022/07/20 09:42:57;;;;;;;14.37;13.07;;;29.10;42.90;;;;;;5030249;28;20475;-50
2022/07/20 09:45:30;;;;;;;13.67;12.60;;;29.10;42.80;;;;;;5031616;28;20451;-49
2022/07/20 09:48:11;;;;;;;13.50;12.40;;;29.10;42.60;;;;;;5038041;28;20542;-49
2022/07/20 09:50:41;;;;;;;13.27;12.27;;;29.10;42.40;;;;;;5029141;28;20476;-50
2022/07/20 09:53:11;;;;;;;14.03;12.83;;;29.20;42.40;;;;;;5029950;28;20455;-51
2022/07/20 09:55:40;;;;;;;13.90;12.60;;;29.20;42.30;;;;;;5041289;28;20459;-49
2022/07/20 09:58:09;;;;;;;14.27;13.17;;;29.10;42.20;;;;;;5035078;28;21000;-49
2022/07/20 10:00:39;;;;;;;14.03;12.93;;;29.10;42.40;;;;;;5016009;28;20460;-50
2022/07/20 10:03:14;;;;;;;13.90;12.80;;;29.10;42.30;;;;;;5020465;28;20465;-50
2022/07/20 10:05:44;;;;;;;14.23;13.13;;;29.10;42.30;;;;;;5031311;28;20556;-49
2022/07/20 10:08:13;;;;;;;13.20;12.20;;;29.20;42.20;;;;;;5017550;28;20448;-48
2022/07/20 10:10:42;;;;;;;13.60;12.30;;;29.20;42.30;;;;;;5029164;28;20459;-48
2022/07/20 10:13:11;;;;;;;13.70;12.60;;;29.10;42.20;;;;;;5029961;28;20491;-49
2022/07/20 10:15:47;;;;;;;13.83;12.60;;;29.10;42.20;;;;;;5029632;28;20479;-50
2022/07/20 10:18:15;;;;;;;12.90;11.80;;;29.10;42.20;;;;;;5039016;28;20783;-49
2022/07/20 10:20:49;;;;;;;13.73;12.70;;;29.10;42.20;;;;;;5030977;28;20546;-49
2022/07/20 10:23:38;;;;;;;12.30;11.20;;;29.10;42.20;;;;;;5030010;28;20491;-49
2022/07/20 10:26:25;;;;;;;13.83;12.53;;;29.10;42.20;;;;;;5029852;28;20491;-50
2022/07/20 10:29:00;;;;;;;12.90;11.80;;;29.10;42.30;;;;;;5033458;28;21113;-49
2022/07/20 10:31:48;;;;;;;13.57;12.47;;;29.10;42.20;;;;;;5030002;28;20547;-49
2022/07/20 10:34:35;;;;;;;12.70;11.70;;;29.10;42.20;;;;;;5011421;28;20464;-50
2022/07/20 10:37:23;;;;;;;11.60;10.70;;;29.10;42.20;;;;;;5029272;28;20464;-48
2022/07/20 10:39:53;;;;;;;13.37;12.37;;;29.10;42.30;;;;;;5029927;28;20442;-49
2022/07/20 10:42:23;;;;;;;13.13;12.07;;;29.10;42.20;;;;;;5029228;28;20975;-50
2022/07/20 10:44:52;;;;;;;13.60;12.60;;;29.10;42.10;;;;;;5028771;28;20847;-49
2022/07/20 10:47:43;;;;;;;13.27;12.20;;;29.10;42.20;;;;;;5029510;28;20456;-48
2022/07/20 10:50:20;;;;;;;12.80;11.90;;;29.10;42.20;;;;;;5013260;28;20557;-49
2022/07/20 10:52:49;;;;;;;12.57;11.63;;;29.10;42.20;;;;;;5028585;28;20466;-51
2022/07/20 10:55:52;;;;;;;11.93;11.03;;;29.10;42.20;;;;;;5029436;28;20424;-49
2022/07/20 10:58:23;;;;;;;12.13;11.23;;;29.10;42.20;;;;;;5023340;28;20822;-49
2022/07/20 11:00:53;;;;;;;11.67;10.77;;;29.10;42.20;;;;;;5033792;28;20479;-50
2022/07/20 11:03:27;;;;;;;12.10;11.10;;;29.10;42.20;;;;;;5033354;28;20514;-50
2022/07/20 11:06:07;;;;;;;12.10;11.10;;;29.10;42.20;;;;;;5034498;28;20487;-50
2022/07/20 11:08:38;;;;;;;12.37;11.47;;;29.10;42.20;;;;;;5034079;28;20444;-50
2022/07/20 11:11:14;;;;;;;11.73;10.73;;;29.10;42.30;;;;;;5035417;28;20452;-49
2022/07/20 11:13:42;;;;;;;13.13;12.00;;;29.10;42.20;;;;;;5042554;28;20937;-49
2022/07/20 11:16:10;;;;;;;11.73;10.73;;;29.10;42.20;;;;;;5037700;28;20466;-49
2022/07/20 11:18:40;;;;;;;11.37;10.47;;;29.10;42.20;;;;;;5043858;28;21316;-49
2022/07/20 11:21:10;;;;;;;11.43;10.63;;;29.10;42.20;;;;;;5035364;28;20467;-49
2022/07/20 11:23:43;;;;;;;12.23;11.30;;;29.10;42.20;;;;;;5039844;28;20482;-49
2022/07/20 11:26:13;;;;;;;12.13;11.23;;;29.10;42.20;;;;;;5032921;28;20467;-49
2022/07/20 11:28:46;;;;;;;11.37;10.40;;;29.10;42.30;;;;;;5047317;28;20829;-49
2022/07/20 11:31:17;;;;;;;11.97;10.97;;;29.10;42.20;;;;;;5033072;28;20509;-51
2022/07/20 11:33:48;;;;;;;12.50;11.50;;;29.10;42.20;;;;;;5032947;28;20432;-48
2022/07/20 11:36:19;;;;;;;10.80;9.90;;;29.10;42.20;;;;;;5040747;28;20894;-49
2022/07/20 11:38:49;;;;;;;11.60;10.63;;;29.10;42.20;;;;;;5044933;28;20434;-50
2022/07/20 11:41:23;;;;;;;11.27;10.37;;;29.10;42.30;;;;;;5041058;28;20553;-49
2022/07/20 11:43:52;;;;;;;12.10;11.10;;;29.10;42.20;;;;;;5036125;28;20554;-47
2022/07/20 11:46:22;;;;;;;11.00;10.20;;;29.20;42.30;;;;;;5036783;28;21060;-49
2022/07/20 11:48:58;;;;;;;11.63;10.63;;;29.10;42.30;;;;;;5033439;28;20429;-49
2022/07/20 11:51:54;;;;;;;10.30;9.60;;;29.10;42.30;;;;;;5019411;28;20482;-49
2022/07/20 11:54:23;;;;;;;11.67;10.57;;;29.10;42.20;;;;;;5032437;28;20424;-49
2022/07/20 11:56:53;;;;;;;11.53;10.60;;;29.10;42.20;;;;;;5021065;28;20914;-51
2022/07/20 11:59:22;;;;;;;12.00;11.10;;;29.10;42.20;;;;;;5022098;28;21452;-48
2022/07/20 12:01:52;;;;;;;11.90;10.87;;;29.10;42.20;;;;;;5042946;28;20465;-48
2022/07/20 12:04:23;;;;;;;10.80;9.90;;;29.10;42.20;;;;;;5020723;28;20522;-48
2022/07/20 12:06:54;;;;;;;11.70;10.70;;;29.10;42.20;;;;;;5038639;28;20508;-49
2022/07/20 12:09:32;;;;;;;12.10;11.10;;;29.10;42.20;;;;;;5021003;28;20452;-48
2022/07/20 12:12:06;;;;;;;10.80;9.90;;;29.10;42.30;;;;;;5040256;28;20475;-48
2022/07/20 12:14:36;;;;;;;10.93;10.13;;;29.20;42.30;;;;;;5043670;28;20502;-48
2022/07/20 12:17:25;;;;;;;9.57;8.67;;;29.10;43.40;;;;;;5036559;28;20555;-49
2022/07/20 12:19:58;;;;;;;11.47;10.37;;;29.10;42.20;;;;;;5039305;28;20456;-50
2022/07/20 12:22:30;;;;;;;9.23;8.43;;;29.10;42.20;;;;;;5040472;28;20452;-49
2022/07/20 12:25:04;;;;;;;10.60;9.70;;;29.10;42.20;;;;;;5040486;28;20456;-49
2022/07/20 12:27:36;;;;;;;11.10;9.97;;;29.10;42.20;;;;;;5039896;28;20467;-51
2022/07/20 12:30:26;;;;;;;11.10;10.10;;;29.10;42.20;;;;;;5051880;28;20441;-49
2022/07/20 12:33:08;;;;;;;10.43;9.63;;;29.10;43.40;;;;;;5033693;28;20447;-49
2022/07/20 12:35:43;;;;;;;10.80;9.80;;;29.10;42.20;;;;;;5036355;28;21044;-49
2022/07/20 12:38:12;;;;;;;10.33;9.53;;;29.10;42.20;;;;;;5028810;28;20538;-49
2022/07/20 12:40:44;;;;;;;10.60;9.77;;;29.10;42.20;;;;;;5039731;28;20462;-48
2022/07/20 12:43:30;;;;;;;10.20;9.30;;;29.10;42.30;;;;;;5036576;28;20435;-49
2022/07/20 12:46:02;;;;;;;10.40;9.60;;;29.10;42.20;;;;;;5022183;28;20464;-49
2022/07/20 12:48:37;;;;;;;10.17;9.23;;;29.10;42.20;;;;;;5040336;28;20885;-48
2022/07/20 12:51:08;;;;;;;11.20;10.30;;;29.10;42.20;;;;;;5032679;28;21044;-49
2022/07/20 12:53:40;;;;;;;10.67;9.77;;;29.10;42.20;;;;;;5031287;28;20808;-51
2022/07/20 12:56:14;;;;;;;10.83;9.93;;;29.10;42.20;;;;;;5031411;28;20467;-49
2022/07/20 12:58:43;;;;;;;10.50;9.60;;;29.10;42.20;;;;;;5022194;28;20863;-50
2022/07/20 13:01:11;;;;;;;10.90;10.00;;;29.10;42.20;;;;;;5037243;28;20470;-49